עמוד ראשי
METAR-TAF:

METAR-TAF

שדות תעופה :

La Serena, צ'ילה

קו רוחב: 29-54S, קו אורך: 071-12W, גובה: 142מטר

תצפית מזג אוויר נוכחית

הדו"ח נערך לפני 46דקות, בשעה 09:00 UTC
רוח 3קשר מכיוון דרום
טמפרטורת 11 צלסיוס
לחות 94%
לחץ 1016 hPa
ראות 10 קילומטר או יותר

METAR: SCSE 240900Z AUTO 19003KT 9999 OVC020/// 11/10 Q1016

זמן: 05:46 (09:46 UTC)

תחזית

הדו"ח נערך לפני 5 שעות ו 38דקות, בשעה 04:08 UTC
תחזית בתוקף מ 24 ב 06 UTC עד 25 ב 06 UTC
רוח 4קשר מכיוון מערב
ראות 10 קילומטר או יותר
עננים בינוניים בגובה 2500רגל
זמנית מ -
24 ב 08 UTC עד 24 ב 12 UTC
ראות: 4000מטר
עננים בינוניים בגובה 800רגל
אד
יעשה מ
24 ב 16 UTC עד 24 ב 18 UTC
רוח 10קשר מכיוון מערב/צפון-מערב
ראות 10 קילומטר או יותר
ללא עננים שבסיסם נמוך מ 5000 רגל או קומולונימבוס
יעשה מ
25 ב 01 UTC עד 25 ב 03 UTC
רוח 4קשר מכיוון מזרח
ראות: 7000מטר
עננים פזורים בגובה 500רגל

TAF: SCSE 240408Z 2406/2506 27004KT 9999 BKN025 TX15/2418Z TN09/2410Z TEMPO 2408/2412 4000 BR BKN008 BECMG 2416/2418 30010KT CAVOK BECMG 2501/2503 09004KT 7000 SCT005

תצפיות ותחזיות מזג אוויר לגבי יותר מ- 4,000 שדות תעופה ברחבי העולם. דוחות METAR ו- TAF.

התחנות הזמינות מסומנות בנקודות צהובות ואדומות על גבי המפה.

העבר את העכבר לנקודה הצבעונית על מנת לראות את שם התחנה.

לאחר מכן, לחץ כדי לראות את תוכן ואת תחזיות מזג האוויר.

כדי לשנות את המפה: לחץ על הכפתורים הירוקים עם הפלוס השחור כדי להתקרב; על הכפתור הירוק עם המקף כדי להתרחק; או בחיצים הירוקים למפות סמוכות.


METAR-TAF: